sensor_id;sensor_type;location;lat;lon;timestamp;pressure;altitude;pressure_sealevel;temperature;humidity
43450;BME280;29041;42.266;23.110;2024-03-07T00:01:54;95609.59;;;5.90;100.00
43450;BME280;29041;42.266;23.110;2024-03-07T00:04:41;95613.75;;;5.82;100.00
43450;BME280;29041;42.266;23.110;2024-03-07T00:07:28;95613.84;;;5.77;100.00
43450;BME280;29041;42.266;23.110;2024-03-07T00:10:16;95604.47;;;5.79;100.00
43450;BME280;29041;42.266;23.110;2024-03-07T00:13:05;95601.28;;;6.10;100.00
43450;BME280;29041;42.266;23.110;2024-03-07T00:15:52;95603.28;;;5.71;100.00
43450;BME280;29041;42.266;23.110;2024-03-07T00:18:39;95608.53;;;5.77;100.00
43450;BME280;29041;42.266;23.110;2024-03-07T00:21:26;95597.47;;;5.83;100.00
43450;BME280;29041;42.266;23.110;2024-03-07T00:24:14;95622.53;;;5.82;100.00
43450;BME280;29041;42.266;23.110;2024-03-07T00:27:02;95601.41;;;5.72;100.00
43450;BME280;29041;42.266;23.110;2024-03-07T00:29:50;95621.09;;;5.57;100.00
43450;BME280;29041;42.266;23.110;2024-03-07T00:32:39;95570.75;;;5.28;100.00
43450;BME280;29041;42.266;23.110;2024-03-07T00:35:26;95603.78;;;5.40;100.00
43450;BME280;29041;42.266;23.110;2024-03-07T00:38:14;95586.31;;;5.67;100.00
43450;BME280;29041;42.266;23.110;2024-03-07T00:41:01;95592.78;;;5.47;100.00
43450;BME280;29041;42.266;23.110;2024-03-07T00:43:48;95588.50;;;5.79;100.00
43450;BME280;29041;42.266;23.110;2024-03-07T00:46:37;95573.63;;;6.06;100.00
43450;BME280;29041;42.266;23.110;2024-03-07T00:49:24;95590.03;;;5.52;100.00
43450;BME280;29041;42.266;23.110;2024-03-07T00:52:12;95567.84;;;5.57;100.00
43450;BME280;29041;42.266;23.110;2024-03-07T00:54:59;95574.56;;;5.82;100.00
43450;BME280;29041;42.266;23.110;2024-03-07T00:57:46;95585.16;;;6.15;100.00
43450;BME280;29041;42.266;23.110;2024-03-07T01:00:34;95586.31;;;5.67;100.00
43450;BME280;29041;42.266;23.110;2024-03-07T01:03:22;95580.78;;;5.64;100.00
43450;BME280;29041;42.266;23.110;2024-03-07T01:06:12;95581.84;;;5.63;100.00
43450;BME280;29041;42.266;23.110;2024-03-07T01:08:59;95583.06;;;5.98;100.00
43450;BME280;29041;42.266;23.110;2024-03-07T01:11:46;95587.72;;;6.21;100.00
43450;BME280;29041;42.266;23.110;2024-03-07T01:14:33;95592.66;;;6.27;100.00
43450;BME280;29041;42.266;23.110;2024-03-07T01:17:21;95580.97;;;5.67;100.00
43450;BME280;29041;42.266;23.110;2024-03-07T01:20:13;95579.00;;;5.59;100.00
43450;BME280;29041;42.266;23.110;2024-03-07T01:23:00;95593.22;;;5.82;100.00
43450;BME280;29041;42.266;23.110;2024-03-07T01:25:47;95597.47;;;5.69;100.00
43450;BME280;29041;42.266;23.110;2024-03-07T01:28:35;95585.50;;;5.67;100.00
43450;BME280;29041;42.266;23.110;2024-03-07T01:31:23;95589.47;;;5.69;100.00
43450;BME280;29041;42.266;23.110;2024-03-07T01:34:10;95588.94;;;5.53;100.00
43450;BME280;29041;42.266;23.110;2024-03-07T01:36:59;95582.22;;;6.03;100.00
43450;BME280;29041;42.266;23.110;2024-03-07T01:39:46;95582.28;;;5.84;100.00
43450;BME280;29041;42.266;23.110;2024-03-07T01:42:33;95588.09;;;5.72;100.00
43450;BME280;29041;42.266;23.110;2024-03-07T01:45:21;95616.31;;;5.87;100.00
43450;BME280;29041;42.266;23.110;2024-03-07T01:48:09;95593.47;;;6.00;100.00
43450;BME280;29041;42.266;23.110;2024-03-07T01:50:57;95608.75;;;6.08;100.00
43450;BME280;29041;42.266;23.110;2024-03-07T01:53:46;95610.16;;;6.06;100.00
43450;BME280;29041;42.266;23.110;2024-03-07T01:56:34;95600.25;;;6.06;100.00
43450;BME280;29041;42.266;23.110;2024-03-07T01:59:22;95624.66;;;6.13;100.00
43450;BME280;29041;42.266;23.110;2024-03-07T02:02:12;95618.22;;;6.00;100.00
43450;BME280;29041;42.266;23.110;2024-03-07T02:04:59;95623.28;;;5.69;100.00
43450;BME280;29041;42.266;23.110;2024-03-07T02:07:47;95611.66;;;5.65;100.00
43450;BME280;29041;42.266;23.110;2024-03-07T02:10:36;95618.28;;;5.67;100.00
43450;BME280;29041;42.266;23.110;2024-03-07T02:13:24;95620.16;;;5.34;100.00
43450;BME280;29041;42.266;23.110;2024-03-07T02:16:11;95626.72;;;5.55;100.00
43450;BME280;29041;42.266;23.110;2024-03-07T02:18:59;95618.63;;;5.61;100.00
43450;BME280;29041;42.266;23.110;2024-03-07T02:21:48;95617.63;;;5.43;100.00
43450;BME280;29041;42.266;23.110;2024-03-07T02:24:35;95612.19;;;5.48;100.00
43450;BME280;29041;42.266;23.110;2024-03-07T02:27:22;95596.72;;;5.36;100.00
43450;BME280;29041;42.266;23.110;2024-03-07T02:30:11;95614.69;;;5.58;100.00
43450;BME280;29041;42.266;23.110;2024-03-07T02:32:58;95610.09;;;5.92;100.00
43450;BME280;29041;42.266;23.110;2024-03-07T02:35:52;95614.50;;;5.54;100.00
43450;BME280;29041;42.266;23.110;2024-03-07T02:38:40;95622.56;;;5.49;100.00
43450;BME280;29041;42.266;23.110;2024-03-07T02:41:28;95612.94;;;5.81;100.00
43450;BME280;29041;42.266;23.110;2024-03-07T02:44:15;95614.31;;;5.65;100.00
43450;BME280;29041;42.266;23.110;2024-03-07T02:47:02;95617.91;;;5.41;100.00
43450;BME280;29041;42.266;23.110;2024-03-07T02:49:59;95623.53;;;5.39;100.00
43450;BME280;29041;42.266;23.110;2024-03-07T02:52:47;95604.13;;;5.53;100.00
43450;BME280;29041;42.266;23.110;2024-03-07T02:55:37;95605.34;;;5.88;100.00
43450;BME280;29041;42.266;23.110;2024-03-07T02:58:25;95619.94;;;6.10;100.00
43450;BME280;29041;42.266;23.110;2024-03-07T03:01:12;95614.88;;;6.09;100.00
43450;BME280;29041;42.266;23.110;2024-03-07T03:03:59;95602.28;;;5.81;100.00
43450;BME280;29041;42.266;23.110;2024-03-07T03:06:46;95603.06;;;5.54;100.00
43450;BME280;29041;42.266;23.110;2024-03-07T03:09:33;95609.16;;;5.54;100.00
43450;BME280;29041;42.266;23.110;2024-03-07T03:12:27;95605.84;;;5.30;100.00
43450;BME280;29041;42.266;23.110;2024-03-07T03:15:14;95610.13;;;5.45;100.00
43450;BME280;29041;42.266;23.110;2024-03-07T03:18:01;95602.59;;;5.33;100.00
43450;BME280;29041;42.266;23.110;2024-03-07T03:20:48;95590.16;;;5.28;100.00
43450;BME280;29041;42.266;23.110;2024-03-07T03:23:36;95585.81;;;5.18;100.00
43450;BME280;29041;42.266;23.110;2024-03-07T03:26:23;95581.69;;;5.26;100.00
43450;BME280;29041;42.266;23.110;2024-03-07T03:29:11;95583.44;;;5.17;100.00
43450;BME280;29041;42.266;23.110;2024-03-07T03:31:59;95591.22;;;5.13;100.00
43450;BME280;29041;42.266;23.110;2024-03-07T03:34:47;95583.91;;;5.19;100.00
43450;BME280;29041;42.266;23.110;2024-03-07T03:37:34;95577.72;;;5.23;100.00
43450;BME280;29041;42.266;23.110;2024-03-07T03:40:21;95579.53;;;4.95;100.00
43450;BME280;29041;42.266;23.110;2024-03-07T03:43:08;95563.69;;;5.04;100.00
43450;BME280;29041;42.266;23.110;2024-03-07T03:45:57;95554.16;;;4.84;100.00
43450;BME280;29041;42.266;23.110;2024-03-07T03:48:45;95556.09;;;4.78;100.00
43450;BME280;29041;42.266;23.110;2024-03-07T03:51:32;95548.19;;;4.73;100.00
43450;BME280;29041;42.266;23.110;2024-03-07T03:54:20;95558.06;;;4.72;100.00
43450;BME280;29041;42.266;23.110;2024-03-07T03:57:07;95560.41;;;4.74;100.00
43450;BME280;29041;42.266;23.110;2024-03-07T03:59:54;95517.03;;;4.59;100.00
43450;BME280;29041;42.266;23.110;2024-03-07T04:02:44;95553.28;;;4.88;100.00
43450;BME280;29041;42.266;23.110;2024-03-07T04:05:33;95552.84;;;5.00;100.00
43450;BME280;29041;42.266;23.110;2024-03-07T04:08:21;95549.22;;;5.10;100.00
43450;BME280;29041;42.266;23.110;2024-03-07T04:11:08;95547.94;;;5.21;100.00
43450;BME280;29041;42.266;23.110;2024-03-07T04:13:55;95526.78;;;4.97;100.00
43450;BME280;29041;42.266;23.110;2024-03-07T04:16:42;95556.69;;;5.41;100.00
43450;BME280;29041;42.266;23.110;2024-03-07T04:19:31;95545.88;;;5.18;100.00
43450;BME280;29041;42.266;23.110;2024-03-07T04:22:19;95555.59;;;5.09;100.00
43450;BME280;29041;42.266;23.110;2024-03-07T04:25:07;95563.44;;;5.19;100.00
43450;BME280;29041;42.266;23.110;2024-03-07T04:27:55;95569.13;;;5.13;100.00
43450;BME280;29041;42.266;23.110;2024-03-07T04:30:44;95566.13;;;5.00;100.00
43450;BME280;29041;42.266;23.110;2024-03-07T04:33:31;95576.81;;;5.14;100.00
43450;BME280;29041;42.266;23.110;2024-03-07T04:36:19;95580.09;;;4.92;100.00
43450;BME280;29041;42.266;23.110;2024-03-07T04:39:08;95573.31;;;5.00;100.00
43450;BME280;29041;42.266;23.110;2024-03-07T04:42:08;95552.22;;;4.70;100.00
43450;BME280;29041;42.266;23.110;2024-03-07T04:45:01;95562.94;;;4.65;100.00
43450;BME280;29041;42.266;23.110;2024-03-07T04:47:56;95562.22;;;4.59;100.00
43450;BME280;29041;42.266;23.110;2024-03-07T04:50:43;95572.75;;;5.03;100.00
43450;BME280;29041;42.266;23.110;2024-03-07T04:53:32;95569.31;;;4.83;100.00
43450;BME280;29041;42.266;23.110;2024-03-07T04:56:19;95568.09;;;4.75;100.00
43450;BME280;29041;42.266;23.110;2024-03-07T04:59:06;95573.28;;;4.67;100.00
43450;BME280;29041;42.266;23.110;2024-03-07T05:01:53;95574.47;;;4.93;100.00
43450;BME280;29041;42.266;23.110;2024-03-07T05:04:40;95563.25;;;4.97;100.00
43450;BME280;29041;42.266;23.110;2024-03-07T05:07:28;95566.50;;;4.74;100.00
43450;BME280;29041;42.266;23.110;2024-03-07T05:10:16;95543.00;;;4.82;100.00
43450;BME280;29041;42.266;23.110;2024-03-07T05:13:05;95570.25;;;4.73;100.00
43450;BME280;29041;42.266;23.110;2024-03-07T05:15:52;95576.06;;;4.56;100.00
43450;BME280;29041;42.266;23.110;2024-03-07T05:18:43;95563.28;;;4.58;100.00
43450;BME280;29041;42.266;23.110;2024-03-07T05:21:30;95586.94;;;4.60;100.00
43450;BME280;29041;42.266;23.110;2024-03-07T05:24:24;95587.56;;;4.52;100.00
43450;BME280;29041;42.266;23.110;2024-03-07T05:27:12;95589.25;;;5.19;100.00
43450;BME280;29041;42.266;23.110;2024-03-07T05:29:59;95579.66;;;4.85;100.00
43450;BME280;29041;42.266;23.110;2024-03-07T05:32:47;95595.19;;;4.97;100.00
43450;BME280;29041;42.266;23.110;2024-03-07T05:35:35;95601.59;;;4.57;100.00
43450;BME280;29041;42.266;23.110;2024-03-07T05:38:22;95602.09;;;4.59;100.00
43450;BME280;29041;42.266;23.110;2024-03-07T05:41:10;95607.97;;;4.37;100.00
43450;BME280;29041;42.266;23.110;2024-03-07T05:43:59;95614.88;;;4.57;100.00
43450;BME280;29041;42.266;23.110;2024-03-07T05:46:46;95622.88;;;5.62;100.00
43450;BME280;29041;42.266;23.110;2024-03-07T05:49:37;95631.72;;;5.90;100.00
43450;BME280;29041;42.266;23.110;2024-03-07T05:52:25;95629.94;;;5.38;100.00
43450;BME280;29041;42.266;23.110;2024-03-07T05:55:13;95642.56;;;5.80;100.00
43450;BME280;29041;42.266;23.110;2024-03-07T05:58:02;95633.66;;;5.70;100.00
43450;BME280;29041;42.266;23.110;2024-03-07T06:00:51;95649.31;;;5.58;100.00
43450;BME280;29041;42.266;23.110;2024-03-07T06:03:39;95649.22;;;5.30;100.00
43450;BME280;29041;42.266;23.110;2024-03-07T06:06:26;95653.47;;;5.31;100.00
43450;BME280;29041;42.266;23.110;2024-03-07T06:09:15;95618.28;;;4.82;100.00
43450;BME280;29041;42.266;23.110;2024-03-07T06:12:07;95658.25;;;4.96;100.00
43450;BME280;29041;42.266;23.110;2024-03-07T06:14:58;95663.09;;;4.70;100.00
43450;BME280;29041;42.266;23.110;2024-03-07T06:17:48;95651.41;;;4.71;100.00
43450;BME280;29041;42.266;23.110;2024-03-07T06:20:36;95660.72;;;4.49;100.00
43450;BME280;29041;42.266;23.110;2024-03-07T06:23:23;95635.59;;;4.60;100.00
43450;BME280;29041;42.266;23.110;2024-03-07T06:26:14;95624.81;;;4.71;100.00
43450;BME280;29041;42.266;23.110;2024-03-07T06:29:03;95640.72;;;4.76;100.00
43450;BME280;29041;42.266;23.110;2024-03-07T06:32:00;95610.13;;;4.73;100.00
43450;BME280;29041;42.266;23.110;2024-03-07T06:34:48;95611.72;;;4.74;100.00
43450;BME280;29041;42.266;23.110;2024-03-07T06:37:38;95618.09;;;5.12;100.00
43450;BME280;29041;42.266;23.110;2024-03-07T06:40:27;95615.81;;;5.05;100.00
43450;BME280;29041;42.266;23.110;2024-03-07T06:43:15;95602.63;;;5.14;100.00
43450;BME280;29041;42.266;23.110;2024-03-07T06:46:02;95595.59;;;5.37;100.00
43450;BME280;29041;42.266;23.110;2024-03-07T06:48:50;95596.72;;;5.50;100.00
43450;BME280;29041;42.266;23.110;2024-03-07T06:51:39;95582.63;;;5.49;100.00
43450;BME280;29041;42.266;23.110;2024-03-07T06:54:26;95570.91;;;5.50;100.00
43450;BME280;29041;42.266;23.110;2024-03-07T06:57:17;95581.34;;;5.61;100.00
43450;BME280;29041;42.266;23.110;2024-03-07T07:00:05;95576.25;;;5.78;100.00
43450;BME280;29041;42.266;23.110;2024-03-07T07:02:58;95594.41;;;5.90;100.00
43450;BME280;29041;42.266;23.110;2024-03-07T07:05:45;95599.00;;;6.03;100.00
43450;BME280;29041;42.266;23.110;2024-03-07T07:08:36;95598.00;;;6.27;100.00
43450;BME280;29041;42.266;23.110;2024-03-07T07:11:24;95596.00;;;6.33;100.00
43450;BME280;29041;42.266;23.110;2024-03-07T07:14:11;95601.41;;;6.56;100.00
43450;BME280;29041;42.266;23.110;2024-03-07T07:16:58;95604.28;;;6.82;100.00
43450;BME280;29041;42.266;23.110;2024-03-07T07:19:45;95609.72;;;6.91;100.00
43450;BME280;29041;42.266;23.110;2024-03-07T07:22:33;95614.13;;;7.63;100.00
43450;BME280;29041;42.266;23.110;2024-03-07T07:25:21;95624.47;;;7.56;100.00
43450;BME280;29041;42.266;23.110;2024-03-07T07:28:08;95643.47;;;7.55;100.00
43450;BME280;29041;42.266;23.110;2024-03-07T07:30:57;95640.78;;;7.09;100.00
43450;BME280;29041;42.266;23.110;2024-03-07T07:33:44;95654.59;;;6.89;100.00
43450;BME280;29041;42.266;23.110;2024-03-07T07:36:31;95657.19;;;6.80;100.00
43450;BME280;29041;42.266;23.110;2024-03-07T07:39:19;95673.00;;;6.76;100.00
43450;BME280;29041;42.266;23.110;2024-03-07T07:42:07;95669.16;;;6.27;100.00
43450;BME280;29041;42.266;23.110;2024-03-07T07:44:55;95664.94;;;6.40;100.00
43450;BME280;29041;42.266;23.110;2024-03-07T07:47:44;95673.84;;;6.21;100.00
43450;BME280;29041;42.266;23.110;2024-03-07T07:50:31;95674.59;;;6.22;100.00
43450;BME280;29041;42.266;23.110;2024-03-07T07:53:20;95674.88;;;6.06;100.00
43450;BME280;29041;42.266;23.110;2024-03-07T07:56:07;95679.47;;;5.86;100.00
43450;BME280;29041;42.266;23.110;2024-03-07T07:58:56;95678.78;;;5.81;100.00
43450;BME280;29041;42.266;23.110;2024-03-07T08:01:43;95670.00;;;5.94;100.00
43450;BME280;29041;42.266;23.110;2024-03-07T08:04:30;95668.84;;;6.00;100.00
43450;BME280;29041;42.266;23.110;2024-03-07T08:07:18;95667.69;;;6.07;100.00
43450;BME280;29041;42.266;23.110;2024-03-07T08:10:06;95659.59;;;6.54;100.00
43450;BME280;29041;42.266;23.110;2024-03-07T08:12:56;95675.50;;;6.45;100.00
43450;BME280;29041;42.266;23.110;2024-03-07T08:15:45;95677.38;;;6.58;100.00
43450;BME280;29041;42.266;23.110;2024-03-07T08:18:32;95669.97;;;6.27;100.00
43450;BME280;29041;42.266;23.110;2024-03-07T08:21:22;95676.22;;;6.37;100.00
43450;BME280;29041;42.266;23.110;2024-03-07T08:24:10;95677.34;;;6.02;100.00
43450;BME280;29041;42.266;23.110;2024-03-07T08:27:00;95683.59;;;6.26;100.00
43450;BME280;29041;42.266;23.110;2024-03-07T08:29:48;95670.19;;;6.31;100.00
43450;BME280;29041;42.266;23.110;2024-03-07T08:32:37;95671.25;;;6.02;100.00
43450;BME280;29041;42.266;23.110;2024-03-07T08:35:24;95668.97;;;6.09;100.00
43450;BME280;29041;42.266;23.110;2024-03-07T08:38:12;95648.53;;;6.05;100.00
43450;BME280;29041;42.266;23.110;2024-03-07T08:40:59;95672.63;;;6.55;100.00
43450;BME280;29041;42.266;23.110;2024-03-07T08:43:50;95678.84;;;6.50;100.00
43450;BME280;29041;42.266;23.110;2024-03-07T08:46:38;95679.16;;;6.49;100.00
43450;BME280;29041;42.266;23.110;2024-03-07T08:49:33;95662.03;;;6.64;100.00
43450;BME280;29041;42.266;23.110;2024-03-07T08:52:25;95684.41;;;7.05;100.00
43450;BME280;29041;42.266;23.110;2024-03-07T08:55:14;95690.25;;;6.93;100.00
43450;BME280;29041;42.266;23.110;2024-03-07T08:58:03;95678.19;;;7.55;100.00
43450;BME280;29041;42.266;23.110;2024-03-07T09:00:52;95681.19;;;7.76;100.00
43450;BME280;29041;42.266;23.110;2024-03-07T09:03:39;95681.41;;;7.20;100.00
43450;BME280;29041;42.266;23.110;2024-03-07T09:06:29;95651.84;;;6.80;100.00
43450;BME280;29041;42.266;23.110;2024-03-07T09:09:17;95667.88;;;7.39;100.00
43450;BME280;29041;42.266;23.110;2024-03-07T09:12:07;95669.09;;;7.56;100.00
43450;BME280;29041;42.266;23.110;2024-03-07T09:14:54;95683.13;;;7.84;100.00
43450;BME280;29041;42.266;23.110;2024-03-07T09:17:42;95656.81;;;7.55;100.00
43450;BME280;29041;42.266;23.110;2024-03-07T09:20:29;95666.06;;;7.49;100.00
43450;BME280;29041;42.266;23.110;2024-03-07T09:23:18;95690.84;;;7.63;100.00
43450;BME280;29041;42.266;23.110;2024-03-07T09:26:06;95690.09;;;7.49;100.00
43450;BME280;29041;42.266;23.110;2024-03-07T09:28:54;95685.69;;;7.98;100.00
43450;BME280;29041;42.266;23.110;2024-03-07T09:31:41;95693.09;;;8.33;100.00
43450;BME280;29041;42.266;23.110;2024-03-07T09:34:28;95686.13;;;8.23;100.00
43450;BME280;29041;42.266;23.110;2024-03-07T09:37:17;95687.03;;;8.09;100.00
43450;BME280;29041;42.266;23.110;2024-03-07T09:40:10;95663.56;;;7.75;100.00
43450;BME280;29041;42.266;23.110;2024-03-07T09:42:59;95683.41;;;7.83;100.00
43450;BME280;29041;42.266;23.110;2024-03-07T09:45:47;95672.34;;;7.75;100.00
43450;BME280;29041;42.266;23.110;2024-03-07T09:48:35;95686.34;;;7.72;100.00
43450;BME280;29041;42.266;23.110;2024-03-07T09:51:24;95685.91;;;7.79;100.00
43450;BME280;29041;42.266;23.110;2024-03-07T09:54:13;95679.81;;;7.87;100.00
43450;BME280;29041;42.266;23.110;2024-03-07T09:57:02;95662.25;;;7.18;100.00
43450;BME280;29041;42.266;23.110;2024-03-07T09:59:53;95672.72;;;7.37;100.00
43450;BME280;29041;42.266;23.110;2024-03-07T10:02:41;95662.66;;;7.34;100.00
43450;BME280;29041;42.266;23.110;2024-03-07T10:05:30;95662.22;;;7.63;100.00
43450;BME280;29041;42.266;23.110;2024-03-07T10:08:21;95664.28;;;7.21;100.00
43450;BME280;29041;42.266;23.110;2024-03-07T10:11:09;95639.94;;;7.68;100.00
43450;BME280;29041;42.266;23.110;2024-03-07T10:13:58;95668.72;;;7.26;100.00
43450;BME280;29041;42.266;23.110;2024-03-07T10:16:45;95644.00;;;7.20;100.00
43450;BME280;29041;42.266;23.110;2024-03-07T10:19:33;95655.91;;;7.14;100.00
43450;BME280;29041;42.266;23.110;2024-03-07T10:22:21;95660.47;;;7.13;100.00
43450;BME280;29041;42.266;23.110;2024-03-07T10:25:08;95668.72;;;7.26;100.00
43450;BME280;29041;42.266;23.110;2024-03-07T10:27:56;95656.78;;;7.23;100.00
43450;BME280;29041;42.266;23.110;2024-03-07T10:30:53;95658.72;;;7.32;100.00
43450;BME280;29041;42.266;23.110;2024-03-07T10:33:40;95656.91;;;7.95;100.00
43450;BME280;29041;42.266;23.110;2024-03-07T10:36:28;95663.31;;;8.17;100.00
43450;BME280;29041;42.266;23.110;2024-03-07T10:39:16;95655.38;;;8.03;100.00
43450;BME280;29041;42.266;23.110;2024-03-07T10:42:08;95646.94;;;7.55;100.00
43450;BME280;29041;42.266;23.110;2024-03-07T10:45:02;95654.56;;;7.71;100.00
43450;BME280;29041;42.266;23.110;2024-03-07T10:47:56;95643.66;;;8.70;100.00
43450;BME280;29041;42.266;23.110;2024-03-07T10:50:52;95633.16;;;9.09;100.00
43450;BME280;29041;42.266;23.110;2024-03-07T10:53:52;95643.25;;;10.04;100.00
43450;BME280;29041;42.266;23.110;2024-03-07T10:56:53;95633.00;;;10.36;100.00
43450;BME280;29041;42.266;23.110;2024-03-07T10:59:49;95631.88;;;9.24;100.00
43450;BME280;29041;42.266;23.110;2024-03-07T11:02:43;95631.78;;;9.86;100.00
43450;BME280;29041;42.266;23.110;2024-03-07T11:05:35;95616.88;;;10.06;100.00
43450;BME280;29041;42.266;23.110;2024-03-07T11:08:24;95631.94;;;9.89;100.00
43450;BME280;29041;42.266;23.110;2024-03-07T11:11:13;95610.09;;;10.98;100.00
43450;BME280;29041;42.266;23.110;2024-03-07T11:14:01;95616.06;;;11.37;100.00
43450;BME280;29041;42.266;23.110;2024-03-07T11:16:49;95615.94;;;10.70;100.00
43450;BME280;29041;42.266;23.110;2024-03-07T11:19:36;95612.06;;;10.29;100.00
43450;BME280;29041;42.266;23.110;2024-03-07T11:22:31;95603.34;;;9.93;100.00
43450;BME280;29041;42.266;23.110;2024-03-07T11:25:20;95597.91;;;9.81;100.00
43450;BME280;29041;42.266;23.110;2024-03-07T11:28:08;95600.38;;;9.86;100.00
43450;BME280;29041;42.266;23.110;2024-03-07T11:31:07;95606.06;;;10.23;100.00
43450;BME280;29041;42.266;23.110;2024-03-07T11:34:14;95614.59;;;10.25;100.00
43450;BME280;29041;42.266;23.110;2024-03-07T11:37:01;95603.69;;;9.92;100.00
43450;BME280;29041;42.266;23.110;2024-03-07T11:39:51;95601.81;;;9.83;100.00
43450;BME280;29041;42.266;23.110;2024-03-07T11:42:43;95595.88;;;10.08;100.00
43450;BME280;29041;42.266;23.110;2024-03-07T11:45:32;95591.19;;;9.96;100.00
43450;BME280;29041;42.266;23.110;2024-03-07T11:48:24;95599.59;;;10.24;100.00
43450;BME280;29041;42.266;23.110;2024-03-07T11:51:19;95602.69;;;10.05;100.00
43450;BME280;29041;42.266;23.110;2024-03-07T11:54:10;95579.06;;;10.58;100.00
43450;BME280;29041;42.266;23.110;2024-03-07T11:57:01;95580.81;;;11.39;100.00
43450;BME280;29041;42.266;23.110;2024-03-07T11:59:49;95571.97;;;11.17;100.00
43450;BME280;29041;42.266;23.110;2024-03-07T12:02:38;95568.41;;;11.13;100.00
43450;BME280;29041;42.266;23.110;2024-03-07T12:05:25;95578.81;;;11.48;100.00
43450;BME280;29041;42.266;23.110;2024-03-07T12:08:13;95567.31;;;11.60;100.00
43450;BME280;29041;42.266;23.110;2024-03-07T12:11:00;95560.66;;;12.41;100.00
43450;BME280;29041;42.266;23.110;2024-03-07T12:13:51;95571.66;;;12.11;100.00
43450;BME280;29041;42.266;23.110;2024-03-07T12:16:38;95564.69;;;13.57;100.00
43450;BME280;29041;42.266;23.110;2024-03-07T12:19:26;95556.13;;;13.10;100.00
43450;BME280;29041;42.266;23.110;2024-03-07T12:22:13;95551.69;;;12.90;100.00
43450;BME280;29041;42.266;23.110;2024-03-07T12:25:08;95539.88;;;11.79;100.00
43450;BME280;29041;42.266;23.110;2024-03-07T12:27:59;95541.66;;;13.91;100.00
43450;BME280;29041;42.266;23.110;2024-03-07T12:30:51;95529.50;;;12.15;100.00
43450;BME280;29041;42.266;23.110;2024-03-07T12:33:40;95527.09;;;11.51;100.00
43450;BME280;29041;42.266;23.110;2024-03-07T12:36:32;95516.22;;;11.48;100.00
43450;BME280;29041;42.266;23.110;2024-03-07T12:39:32;95524.31;;;11.26;100.00
43450;BME280;29041;42.266;23.110;2024-03-07T12:42:21;95509.81;;;12.64;100.00
43450;BME280;29041;42.266;23.110;2024-03-07T12:45:09;95516.09;;;12.56;100.00
43450;BME280;29041;42.266;23.110;2024-03-07T12:48:07;95508.41;;;13.71;100.00
43450;BME280;29041;42.266;23.110;2024-03-07T12:50:54;95499.38;;;13.35;100.00
43450;BME280;29041;42.266;23.110;2024-03-07T12:53:41;95506.00;;;12.52;100.00
43450;BME280;29041;42.266;23.110;2024-03-07T12:56:28;95504.75;;;11.38;100.00
43450;BME280;29041;42.266;23.110;2024-03-07T12:59:20;95503.00;;;11.67;100.00
43450;BME280;29041;42.266;23.110;2024-03-07T13:02:10;95510.38;;;11.58;100.00
43450;BME280;29041;42.266;23.110;2024-03-07T13:04:59;95496.78;;;12.00;100.00
43450;BME280;29041;42.266;23.110;2024-03-07T13:07:48;95493.84;;;12.71;100.00
43450;BME280;29041;42.266;23.110;2024-03-07T13:10:35;95501.09;;;12.83;96.61
43450;BME280;29041;42.266;23.110;2024-03-07T13:13:23;95494.75;;;12.63;99.37
43450;BME280;29041;42.266;23.110;2024-03-07T13:16:10;95492.75;;;12.06;100.00
43450;BME280;29041;42.266;23.110;2024-03-07T13:18:57;95479.03;;;12.93;100.00
43450;BME280;29041;42.266;23.110;2024-03-07T13:21:46;95476.56;;;12.19;96.66
43450;BME280;29041;42.266;23.110;2024-03-07T13:24:33;95468.91;;;13.02;97.65
43450;BME280;29041;42.266;23.110;2024-03-07T13:27:21;95474.00;;;13.36;94.14
43450;BME280;29041;42.266;23.110;2024-03-07T13:30:14;95474.19;;;12.99;93.18
43450;BME280;29041;42.266;23.110;2024-03-07T13:33:10;95470.25;;;12.80;93.87
43450;BME280;29041;42.266;23.110;2024-03-07T13:35:57;95472.94;;;12.80;93.84
43450;BME280;29041;42.266;23.110;2024-03-07T13:38:48;95484.31;;;11.83;92.84
43450;BME280;29041;42.266;23.110;2024-03-07T13:41:36;95487.22;;;11.53;96.11
43450;BME280;29041;42.266;23.110;2024-03-07T13:44:23;95493.72;;;11.65;98.61
43450;BME280;29041;42.266;23.110;2024-03-07T13:47:13;95501.31;;;11.50;97.87
43450;BME280;29041;42.266;23.110;2024-03-07T13:50:01;95487.88;;;11.38;98.28
43450;BME280;29041;42.266;23.110;2024-03-07T13:52:49;95495.84;;;11.13;99.27
43450;BME280;29041;42.266;23.110;2024-03-07T13:56:23;95491.66;;;11.37;97.73
43450;BME280;29041;42.266;23.110;2024-03-07T13:59:33;95491.19;;;11.22;99.22
43450;BME280;29041;42.266;23.110;2024-03-07T14:02:48;95498.69;;;10.95;97.01
43450;BME280;29041;42.266;23.110;2024-03-07T14:05:58;95476.88;;;10.63;98.46
43450;BME280;29041;42.266;23.110;2024-03-07T14:09:22;95495.34;;;10.44;99.64
43450;BME280;29041;42.266;23.110;2024-03-07T14:12:31;95497.16;;;10.31;100.00
43450;BME280;29041;42.266;23.110;2024-03-07T14:22:32;95502.19;;;10.54;90.35
43450;BME280;29041;42.266;23.110;2024-03-07T14:25:46;95498.28;;;10.21;90.76
43450;BME280;29041;42.266;23.110;2024-03-07T14:28:53;95506.31;;;10.30;92.27
43450;BME280;29041;42.266;23.110;2024-03-07T14:31:46;95514.66;;;10.28;88.32
43450;BME280;29041;42.266;23.110;2024-03-07T14:34:43;95511.78;;;10.42;89.94
43450;BME280;29041;42.266;23.110;2024-03-07T14:37:38;95515.31;;;9.65;95.56
43450;BME280;29041;42.266;23.110;2024-03-07T14:40:36;95517.41;;;9.51;99.68
43450;BME280;29041;42.266;23.110;2024-03-07T14:43:23;95525.53;;;9.07;100.00
43450;BME280;29041;42.266;23.110;2024-03-07T14:46:14;95521.78;;;8.99;100.00
43450;BME280;29041;42.266;23.110;2024-03-07T14:49:03;95529.81;;;8.99;100.00
43450;BME280;29041;42.266;23.110;2024-03-07T14:51:51;95526.53;;;8.67;100.00